West Mansfield, Ohio
Current Conditions -  °F | °C
As of 2:10 PM on Friday 28 Nov 2014 (Local Time) from KEDJ Reporting Station
Few Clouds Few Clouds  
Wind Chill: 16°   Ceiling: Unl
Heat Index: 27°   Visibility: 10mi
Dew Point: 18°   Wind: 13mph
Humidity: 69%   Direction: 200°SSW
Pressure: 30.22"   Gusts: NA
Location:  40.4°N, 83.55°W
Report Text: KEDJ 281910Z AUTO 20011KT 10SM FEW070 M03/M08 A3022 RMK AO1
Loading
Personal Weather Stations






























Interactive Weather Map New forecast layout! Learn more

10-Day Weather Forecast

Advertisements
Track Severe Weather on mobile